createdAt,value
2022-09-27T00:00:07.768Z,7.80
2022-09-27T00:00:59.650Z,7.80
2022-09-27T00:01:39.460Z,6.10
2022-09-27T00:02:12.651Z,5.70
2022-09-27T00:02:45.907Z,6.30
2022-09-27T00:03:19.045Z,7.20
2022-09-27T00:04:00.550Z,9.50
2022-09-27T00:04:33.700Z,7.00
2022-09-27T00:05:07.338Z,6.80
2022-09-27T00:05:40.628Z,10.30
2022-09-27T00:06:20.843Z,7.40
2022-09-27T00:06:53.987Z,8.50
2022-09-27T00:07:27.293Z,7.20
2022-09-27T00:08:00.389Z,7.40
2022-09-27T00:08:36.199Z,7.20
2022-09-27T00:09:11.017Z,6.60
2022-09-27T00:09:44.237Z,7.40
2022-09-27T00:10:17.678Z,6.50
2022-09-27T00:10:59.421Z,5.90
2022-09-27T00:11:36.173Z,8.90
2022-09-27T00:12:10.714Z,8.10
2022-09-27T00:12:44.081Z,8.20
2022-09-27T00:13:17.279Z,8.00
2022-09-27T00:13:50.459Z,6.50
2022-09-27T00:14:23.595Z,7.60
2022-09-27T00:14:57.395Z,7.30
2022-09-27T00:15:30.779Z,6.50
2022-09-27T00:16:07.547Z,9.20
2022-09-27T00:16:42.245Z,8.90
2022-09-27T00:17:15.440Z,9.00
2022-09-27T00:17:52.244Z,8.00
2022-09-27T00:18:25.441Z,6.30
2022-09-27T00:19:00.677Z,8.90
2022-09-27T00:19:34.562Z,8.50
2022-09-27T00:20:09.108Z,9.30
2022-09-27T00:20:42.254Z,6.70
2022-09-27T00:21:15.457Z,13.30
2022-09-27T00:21:50.270Z,7.10
2022-09-27T00:22:24.394Z,8.30
2022-09-27T00:22:57.474Z,6.00
2022-09-27T00:23:30.679Z,6.00
2022-09-27T00:24:04.005Z,7.10
2022-09-27T00:24:37.221Z,5.70
2022-09-27T00:25:10.260Z,5.90
2022-09-27T00:25:43.419Z,5.40
2022-09-27T00:26:16.467Z,5.70
2022-09-27T00:26:50.778Z,6.60
2022-09-27T00:27:23.940Z,7.00
2022-09-27T00:27:57.101Z,5.60
2022-09-27T00:28:31.230Z,6.90
2022-09-27T00:29:05.121Z,7.00
2022-09-27T00:29:38.175Z,5.00
2022-09-27T00:30:12.087Z,7.50
2022-09-27T00:30:45.348Z,5.80
2022-09-27T00:31:23.344Z,5.60
2022-09-27T00:31:57.131Z,5.90
2022-09-27T00:32:30.289Z,5.90
2022-09-27T00:33:03.430Z,6.80
2022-09-27T00:33:36.540Z,5.80
2022-09-27T00:34:24.544Z,5.90
2022-09-27T00:34:57.736Z,5.50
2022-09-27T00:35:31.026Z,5.10
2022-09-27T00:36:06.183Z,5.40
2022-09-27T00:36:39.222Z,4.80
2022-09-27T00:37:12.594Z,5.20
2022-09-27T00:37:48.720Z,5.30
2022-09-27T00:38:22.104Z,4.70
2022-09-27T00:38:55.972Z,5.20
2022-09-27T00:39:29.126Z,5.90
2022-09-27T00:40:02.770Z,5.50
2022-09-27T00:40:35.994Z,7.00
2022-09-27T00:41:24.558Z,5.90
2022-09-27T00:41:58.543Z,6.30
2022-09-27T00:42:31.678Z,6.80
2022-09-27T00:43:17.113Z,6.20
2022-09-27T00:43:57.185Z,6.20
2022-09-27T00:44:33.781Z,5.80
2022-09-27T00:45:12.701Z,5.50
2022-09-27T00:46:00.045Z,6.10
2022-09-27T00:46:50.313Z,6.20
2022-09-27T00:47:50.250Z,5.40
2022-09-27T00:48:28.114Z,5.50
2022-09-27T00:49:22.219Z,5.90
2022-09-27T00:50:14.744Z,11.00
2022-09-27T00:50:53.501Z,5.40
2022-09-27T00:51:27.397Z,5.90
2022-09-27T00:52:05.439Z,4.80
2022-09-27T00:53:18.388Z,5.10
2022-09-27T00:53:56.945Z,7.80
2022-09-27T00:54:32.711Z,6.00
2022-09-27T00:55:18.065Z,5.30
2022-09-27T00:55:56.062Z,6.90
2022-09-27T00:56:31.129Z,6.00
2022-09-27T00:57:05.703Z,5.60
2022-09-27T00:57:40.242Z,6.50
2022-09-27T00:58:18.138Z,5.80
2022-09-27T00:58:59.789Z,6.40
2022-09-27T00:59:50.991Z,8.60
2022-09-27T01:00:24.259Z,7.30
2022-09-27T01:01:02.925Z,5.50
2022-09-27T01:01:36.467Z,6.00
2022-09-27T01:02:11.253Z,5.60
2022-09-27T01:02:53.076Z,5.20
2022-09-27T01:03:39.676Z,5.70
2022-09-27T01:04:18.534Z,5.30
2022-09-27T01:04:52.446Z,5.60
2022-09-27T01:05:29.007Z,5.00
2022-09-27T01:06:03.322Z,5.50
2022-09-27T01:06:38.165Z,5.30
2022-09-27T01:07:11.507Z,5.10
2022-09-27T01:07:44.547Z,5.60
2022-09-27T01:08:17.733Z,4.60
2022-09-27T01:08:50.895Z,12.00
2022-09-27T01:09:25.275Z,5.30
2022-09-27T01:09:58.932Z,5.30
2022-09-27T01:10:52.523Z,5.80
2022-09-27T01:11:43.819Z,6.30
2022-09-27T01:12:57.319Z,6.00
2022-09-27T01:14:01.916Z,4.80
2022-09-27T01:14:50.113Z,5.50
2022-09-27T01:15:51.203Z,4.90
2022-09-27T01:16:44.211Z,4.90
2022-09-27T01:17:20.130Z,5.10
2022-09-27T01:18:15.613Z,6.90
2022-09-27T01:19:14.538Z,7.60
2022-09-27T01:20:15.867Z,5.10
2022-09-27T01:21:21.281Z,4.80
2022-09-27T01:22:07.193Z,5.40
2022-09-27T01:22:56.533Z,6.00
2022-09-27T01:24:05.928Z,5.30
2022-09-27T01:25:03.246Z,5.40
2022-09-27T01:25:58.036Z,6.90
2022-09-27T01:26:43.364Z,4.40
2022-09-27T01:27:50.446Z,4.90
2022-09-27T01:28:33.447Z,4.50
2022-09-27T01:29:31.818Z,4.50
2022-09-27T01:30:16.944Z,6.00
2022-09-27T01:31:16.653Z,5.00
2022-09-27T01:32:32.101Z,5.20
2022-09-27T01:33:11.734Z,7.90
2022-09-27T01:34:12.270Z,5.30
2022-09-27T01:34:56.123Z,5.30
2022-09-27T01:35:47.690Z,7.20
2022-09-27T01:36:54.795Z,7.80
2022-09-27T01:38:12.790Z,5.30
2022-09-27T01:39:00.108Z,5.90
2022-09-27T01:39:54.704Z,7.60
2022-09-27T01:40:34.776Z,4.30
2022-09-27T01:41:24.335Z,4.90
2022-09-27T01:42:21.274Z,5.30
2022-09-27T01:43:18.896Z,5.40
2022-09-27T01:44:03.691Z,5.00
2022-09-27T01:44:45.608Z,8.60
2022-09-27T01:45:39.395Z,6.10
2022-09-27T01:46:20.465Z,5.80
2022-09-27T01:46:58.290Z,5.20
2022-09-27T01:47:59.894Z,8.10
2022-09-27T01:48:40.575Z,6.90
2022-09-27T01:49:23.797Z,7.20
2022-09-27T01:50:02.965Z,5.00
2022-09-27T01:50:42.155Z,5.70
2022-09-27T01:51:30.004Z,7.10
2022-09-27T01:52:07.073Z,5.20
2022-09-27T01:52:49.592Z,6.20
2022-09-27T01:53:25.228Z,4.90
2022-09-27T01:54:05.677Z,6.10
2022-09-27T01:54:46.438Z,5.80
2022-09-27T01:55:57.855Z,7.90
2022-09-27T01:56:38.924Z,8.30
2022-09-27T01:57:17.271Z,7.80
2022-09-27T01:58:07.032Z,7.10
2022-09-27T01:58:51.708Z,6.20
2022-09-27T01:59:29.892Z,5.50
2022-09-27T02:00:08.852Z,5.50
2022-09-27T02:00:46.513Z,5.70
2022-09-27T02:01:22.656Z,6.00
2022-09-27T02:02:00.579Z,7.30
2022-09-27T02:02:40.250Z,7.60
2022-09-27T02:03:29.225Z,6.40
2022-09-27T02:04:05.774Z,6.70
2022-09-27T02:04:43.061Z,5.30
2022-09-27T02:05:19.407Z,4.90
2022-09-27T02:06:16.192Z,4.50
2022-09-27T02:06:54.811Z,6.60
2022-09-27T02:07:35.699Z,5.20
2022-09-27T02:08:21.603Z,5.70
2022-09-27T02:09:06.680Z,4.90
2022-09-27T02:09:48.037Z,5.70
2022-09-27T02:10:25.213Z,6.10
2022-09-27T02:11:02.906Z,6.10
2022-09-27T02:11:42.454Z,9.00
2022-09-27T02:12:21.105Z,4.90
2022-09-27T02:13:22.305Z,8.40
2022-09-27T02:14:17.248Z,6.80
2022-09-27T02:15:12.682Z,5.90
2022-09-27T02:16:17.571Z,4.80
2022-09-27T02:16:54.942Z,4.70
2022-09-27T02:17:46.250Z,5.10
2022-09-27T02:18:57.971Z,7.60
2022-09-27T02:19:52.938Z,4.80
2022-09-27T02:20:36.029Z,4.70
2022-09-27T02:21:15.015Z,5.50
2022-09-27T02:22:10.214Z,5.40
2022-09-27T02:22:49.383Z,5.20
2022-09-27T02:23:36.372Z,5.70
2022-09-27T02:24:15.112Z,6.00
2022-09-27T02:24:57.325Z,6.30
2022-09-27T02:26:03.229Z,6.20
2022-09-27T02:26:41.972Z,5.80
2022-09-27T02:27:27.553Z,5.50
2022-09-27T02:28:05.213Z,6.70
2022-09-27T02:28:45.981Z,5.40
2022-09-27T02:30:12.736Z,5.90
2022-09-27T02:30:46.041Z,5.00
2022-09-27T02:31:20.557Z,6.80
2022-09-27T02:31:54.068Z,7.90
2022-09-27T02:32:27.688Z,7.70
2022-09-27T02:33:01.116Z,5.80
2022-09-27T02:34:01.615Z,6.20
2022-09-27T02:34:38.593Z,6.60
2022-09-27T02:35:32.963Z,6.30
2022-09-27T02:36:06.502Z,6.00
2022-09-27T02:36:40.579Z,6.10
2022-09-27T02:37:14.015Z,6.20
2022-09-27T02:37:48.381Z,5.80
2022-09-27T02:38:22.220Z,5.40
2022-09-27T02:38:55.513Z,5.90
2022-09-27T02:39:28.831Z,5.60
2022-09-27T02:40:03.788Z,6.50
2022-09-27T02:40:44.560Z,5.00
2022-09-27T02:41:52.314Z,6.00
2022-09-27T02:42:26.417Z,6.80
2022-09-27T02:43:00.807Z,5.70
2022-09-27T02:43:33.992Z,6.10
2022-09-27T02:44:11.684Z,8.20
2022-09-27T02:44:45.492Z,6.50
2022-09-27T02:45:20.108Z,7.00
2022-09-27T02:45:59.283Z,6.70
2022-09-27T02:46:45.752Z,7.60
2022-09-27T02:47:57.232Z,6.00
2022-09-27T02:48:45.283Z,7.10
2022-09-27T02:49:39.652Z,5.10
2022-09-27T02:50:42.090Z,5.20
2022-09-27T02:51:25.442Z,5.40
2022-09-27T02:52:04.207Z,5.20
2022-09-27T02:53:08.312Z,6.30
2022-09-27T02:54:17.206Z,5.30
2022-09-27T02:55:08.625Z,6.10
2022-09-27T02:56:18.964Z,5.80
2022-09-27T02:56:55.133Z,5.80
2022-09-27T02:57:52.173Z,5.70
2022-09-27T02:58:43.748Z,9.20
2022-09-27T03:00:11.162Z,6.90
2022-09-27T03:01:20.925Z,7.30
2022-09-27T03:02:31.528Z,5.90
2022-09-27T03:03:19.975Z,5.70
2022-09-27T03:04:07.142Z,6.20
2022-09-27T03:04:47.671Z,6.00
2022-09-27T03:05:36.512Z,6.30
2022-09-27T03:06:16.019Z,5.90
2022-09-27T03:06:50.563Z,8.10
2022-09-27T03:07:24.769Z,5.80
2022-09-27T03:07:58.292Z,7.00
2022-09-27T03:08:31.873Z,8.00
2022-09-27T03:09:05.045Z,7.20
2022-09-27T03:09:48.358Z,5.90
2022-09-27T03:10:25.245Z,5.20
2022-09-27T03:10:58.531Z,4.60
2022-09-27T03:11:33.661Z,4.60
2022-09-27T03:12:06.802Z,4.80
2022-09-27T03:12:39.927Z,4.60
2022-09-27T03:13:13.823Z,5.60
2022-09-27T03:14:07.471Z,4.60
2022-09-27T03:14:40.375Z,5.80
2022-09-27T03:15:14.100Z,5.10
2022-09-27T03:15:47.185Z,6.10
2022-09-27T03:16:20.390Z,6.30
2022-09-27T03:16:53.585Z,8.60
2022-09-27T03:17:27.265Z,8.60
2022-09-27T03:18:00.564Z,7.40
2022-09-27T03:18:34.992Z,7.60
2022-09-27T03:19:10.069Z,7.40
2022-09-27T03:19:43.869Z,7.60
2022-09-27T03:20:18.266Z,8.00
2022-09-27T03:20:54.105Z,7.90
2022-09-27T03:21:27.225Z,8.80
2022-09-27T03:22:00.289Z,10.30
2022-09-27T03:22:33.392Z,9.10
2022-09-27T03:23:06.545Z,8.90
2022-09-27T03:23:39.648Z,8.10
2022-09-27T03:24:12.724Z,8.60
2022-09-27T03:24:45.946Z,10.00
2022-09-27T03:25:20.320Z,9.20
2022-09-27T03:25:53.700Z,8.60
2022-09-27T03:26:27.511Z,10.30
2022-09-27T03:27:01.202Z,14.50
2022-09-27T03:27:34.706Z,8.60
2022-09-27T03:28:08.580Z,8.40
2022-09-27T03:28:42.025Z,8.70
2022-09-27T03:29:15.919Z,8.40
2022-09-27T03:29:49.073Z,8.30
2022-09-27T03:30:22.202Z,9.50
2022-09-27T03:30:55.396Z,8.40
2022-09-27T03:31:28.654Z,8.70
2022-09-27T03:32:02.658Z,10.40
2022-09-27T03:32:35.838Z,9.90
2022-09-27T03:33:12.154Z,8.50
2022-09-27T03:33:45.325Z,9.70
2022-09-27T03:34:18.438Z,13.60
2022-09-27T03:34:52.251Z,9.00
2022-09-27T03:35:26.367Z,9.90
2022-09-27T03:36:00.645Z,9.10
2022-09-27T03:36:34.623Z,9.80
2022-09-27T03:37:08.613Z,10.20
2022-09-27T03:37:42.433Z,9.70
2022-09-27T03:38:15.601Z,9.50
2022-09-27T03:38:48.680Z,9.20
2022-09-27T03:39:21.907Z,9.40
2022-09-27T03:39:55.320Z,9.20
2022-09-27T03:40:28.655Z,9.40
2022-09-27T03:41:01.843Z,8.80
2022-09-27T03:41:35.307Z,10.40
2022-09-27T03:42:08.536Z,9.20
2022-09-27T03:42:45.018Z,8.70
2022-09-27T03:43:21.360Z,10.00
2022-09-27T03:43:58.237Z,7.90
2022-09-27T03:44:33.070Z,9.10
2022-09-27T03:45:06.612Z,7.70
2022-09-27T03:45:39.729Z,8.30
2022-09-27T03:46:13.374Z,9.00
2022-09-27T03:46:47.329Z,8.50
2022-09-27T03:47:22.551Z,8.30
2022-09-27T03:47:55.505Z,8.70
2022-09-27T03:48:31.377Z,8.60
2022-09-27T03:49:04.728Z,8.60
2022-09-27T03:49:37.824Z,9.50
2022-09-27T03:50:12.454Z,9.20
2022-09-27T03:50:45.545Z,11.10
2022-09-27T03:51:18.787Z,10.40
2022-09-27T03:51:52.211Z,18.50
2022-09-27T03:52:25.303Z,9.40
2022-09-27T03:52:58.443Z,8.20
2022-09-27T03:53:31.574Z,8.60
2022-09-27T03:54:04.862Z,9.10
2022-09-27T03:54:37.964Z,11.50
2022-09-27T03:55:12.639Z,11.20
2022-09-27T03:55:46.535Z,9.80
2022-09-27T03:56:20.026Z,8.50
2022-09-27T03:56:53.164Z,13.50
2022-09-27T03:57:26.780Z,10.80
2022-09-27T03:58:00.379Z,7.80
2022-09-27T03:58:37.536Z,12.00
2022-09-27T03:59:11.527Z,11.00
2022-09-27T03:59:44.830Z,13.60
2022-09-27T04:00:18.420Z,17.20
2022-09-27T04:00:51.577Z,18.60
2022-09-27T04:01:26.367Z,11.40
2022-09-27T04:01:59.597Z,8.20
2022-09-27T04:02:32.698Z,9.40
2022-09-27T04:03:05.799Z,18.70
2022-09-27T04:03:39.009Z,11.00
2022-09-27T04:04:12.044Z,9.50
2022-09-27T04:04:45.415Z,15.80
2022-09-27T04:05:19.300Z,17.90
2022-09-27T04:05:52.770Z,12.10
2022-09-27T04:06:27.457Z,9.30
2022-09-27T04:07:00.527Z,13.50
2022-09-27T04:07:33.695Z,12.20
2022-09-27T04:08:08.079Z,7.90
2022-09-27T04:08:41.308Z,7.90
2022-09-27T04:09:14.465Z,14.90
2022-09-27T04:09:47.705Z,7.80
2022-09-27T04:10:21.919Z,12.70
2022-09-27T04:10:55.115Z,8.20
2022-09-27T04:11:28.166Z,8.10
2022-09-27T04:12:01.652Z,15.70
2022-09-27T04:12:34.747Z,12.50
2022-09-27T04:13:07.794Z,8.70
2022-09-27T04:13:41.423Z,10.60
2022-09-27T04:14:14.581Z,9.00
2022-09-27T04:14:47.884Z,11.80
2022-09-27T04:15:21.431Z,10.20
2022-09-27T04:15:54.661Z,15.40
2022-09-27T04:16:27.973Z,8.80
2022-09-27T04:17:01.119Z,8.10
2022-09-27T04:17:35.385Z,10.70
2022-09-27T04:18:09.031Z,15.30
2022-09-27T04:18:42.793Z,20.80
2022-09-27T04:19:16.201Z,21.40
2022-09-27T04:19:49.750Z,19.50
2022-09-27T04:20:22.880Z,12.20
2022-09-27T04:20:55.972Z,15.60
2022-09-27T04:21:29.112Z,16.80
2022-09-27T04:22:02.113Z,10.40
2022-09-27T04:22:35.423Z,14.10
2022-09-27T04:23:08.963Z,8.90
2022-09-27T04:23:42.129Z,16.90
2022-09-27T04:24:15.348Z,10.80
2022-09-27T04:24:48.558Z,10.60
2022-09-27T04:25:21.773Z,10.30
2022-09-27T04:25:55.229Z,13.00
2022-09-27T04:26:28.391Z,16.80
2022-09-27T04:27:01.723Z,14.80
2022-09-27T04:27:34.853Z,8.70
2022-09-27T04:28:08.167Z,7.10
2022-09-27T04:28:41.289Z,8.50
2022-09-27T04:29:15.457Z,8.70
2022-09-27T04:29:49.002Z,10.70
2022-09-27T04:30:23.378Z,16.00
2022-09-27T04:30:57.184Z,15.80
2022-09-27T04:31:30.513Z,21.80
2022-09-27T04:32:03.899Z,12.90
2022-09-27T04:32:42.123Z,7.90
2022-09-27T04:33:15.406Z,7.30
2022-09-27T04:33:48.461Z,12.80
2022-09-27T04:34:45.592Z,8.10
2022-09-27T04:35:38.049Z,14.40
2022-09-27T04:36:29.344Z,17.60
2022-09-27T04:37:02.513Z,23.20
2022-09-27T04:37:37.123Z,15.00
2022-09-27T04:38:10.221Z,14.30
2022-09-27T04:38:43.271Z,25.90
2022-09-27T04:39:16.673Z,7.30
2022-09-27T04:39:50.176Z,9.50
2022-09-27T04:40:24.912Z,12.40
2022-09-27T04:40:58.323Z,18.20
2022-09-27T04:41:32.321Z,9.40
2022-09-27T04:42:06.519Z,6.90
2022-09-27T04:42:39.751Z,7.80
2022-09-27T04:43:12.958Z,8.30
2022-09-27T04:43:46.226Z,11.40
2022-09-27T04:44:19.396Z,14.50
2022-09-27T04:44:52.570Z,10.40
2022-09-27T04:45:25.992Z,18.40
2022-09-27T04:45:59.172Z,9.20
2022-09-27T04:46:32.423Z,21.20
2022-09-27T04:47:46.106Z,38.20
2022-09-27T04:48:19.182Z,20.40
2022-09-27T04:48:52.436Z,23.20
2022-09-27T04:49:25.522Z,23.30
2022-09-27T04:49:58.562Z,21.10
2022-09-27T04:50:35.827Z,13.00
2022-09-27T04:51:10.897Z,34.00
2022-09-27T04:51:44.075Z,8.70
2022-09-27T04:52:17.193Z,8.50
2022-09-27T04:52:54.689Z,10.60
2022-09-27T04:53:29.896Z,7.20
2022-09-27T04:54:03.074Z,14.60
2022-09-27T04:54:36.494Z,16.00
2022-09-27T04:55:11.030Z,7.50
2022-09-27T04:55:47.736Z,13.00
2022-09-27T04:56:20.833Z,8.30
2022-09-27T04:56:53.919Z,6.30
2022-09-27T04:57:27.251Z,6.00
2022-09-27T04:58:01.961Z,6.50
2022-09-27T04:58:35.749Z,16.20
2022-09-27T04:59:10.930Z,20.20
2022-09-27T04:59:44.818Z,15.80
2022-09-27T05:00:18.580Z,9.80
2022-09-27T05:00:56.122Z,30.00
2022-09-27T05:01:30.525Z,15.00
2022-09-27T05:02:04.002Z,9.90
2022-09-27T05:02:37.415Z,10.10
2022-09-27T05:03:10.822Z,15.90
2022-09-27T05:03:44.439Z,15.40
2022-09-27T05:04:17.750Z,14.10
2022-09-27T05:04:50.993Z,13.50
2022-09-27T05:05:24.177Z,14.10
2022-09-27T05:05:57.549Z,11.20
2022-09-27T05:06:30.978Z,13.30
2022-09-27T05:07:05.376Z,14.60
2022-09-27T05:07:39.873Z,15.20
2022-09-27T05:08:12.943Z,15.50
2022-09-27T05:08:46.254Z,10.20
2022-09-27T05:09:19.898Z,12.90
2022-09-27T05:09:53.411Z,14.70
2022-09-27T05:10:26.792Z,22.40
2022-09-27T05:11:00.055Z,16.70
2022-09-27T05:11:33.307Z,17.80
2022-09-27T05:12:08.934Z,24.30
2022-09-27T05:12:42.051Z,18.10
2022-09-27T05:13:15.735Z,24.00
2022-09-27T05:13:48.933Z,16.80
2022-09-27T05:14:22.115Z,14.90
2022-09-27T05:14:55.269Z,17.60
2022-09-27T05:15:29.182Z,6.50
2022-09-27T05:16:04.799Z,9.10
2022-09-27T05:16:38.073Z,6.00
2022-09-27T05:17:11.442Z,15.70
2022-09-27T05:17:45.908Z,11.90
2022-09-27T05:18:19.395Z,8.70
2022-09-27T05:18:52.618Z,10.10
2022-09-27T05:19:25.851Z,6.30
2022-09-27T05:19:59.000Z,7.90
2022-09-27T05:20:32.230Z,12.20
2022-09-27T05:21:05.729Z,10.80
2022-09-27T05:21:39.151Z,9.40
2022-09-27T05:22:12.585Z,9.40
2022-09-27T05:22:46.391Z,13.10
2022-09-27T05:23:20.642Z,13.90
2022-09-27T05:23:54.444Z,8.90
2022-09-27T05:24:33.495Z,20.70
2022-09-27T05:25:07.023Z,10.40
2022-09-27T05:25:40.242Z,6.20
2022-09-27T05:26:13.497Z,9.70
2022-09-27T05:26:47.750Z,15.50
2022-09-27T05:27:21.058Z,7.10
2022-09-27T05:27:54.562Z,6.30
2022-09-27T05:28:27.929Z,11.40
2022-09-27T05:29:01.188Z,6.60
2022-09-27T05:29:35.588Z,6.40
2022-09-27T05:30:09.052Z,8.20
2022-09-27T05:30:42.366Z,6.10
2022-09-27T05:31:16.648Z,9.20
2022-09-27T05:31:50.227Z,16.80
2022-09-27T05:32:23.845Z,13.10
2022-09-27T05:32:57.063Z,10.40
2022-09-27T05:33:30.076Z,17.40
2022-09-27T05:34:03.255Z,10.70
2022-09-27T05:34:36.437Z,8.70
2022-09-27T05:35:10.102Z,17.30
2022-09-27T05:35:45.621Z,18.60
2022-09-27T05:36:19.179Z,11.00
2022-09-27T05:36:52.334Z,5.80
2022-09-27T05:37:25.729Z,6.60
2022-09-27T05:38:00.745Z,6.00
2022-09-27T05:38:33.926Z,11.00
2022-09-27T05:39:08.121Z,13.10
2022-09-27T05:39:41.174Z,10.30
2022-09-27T05:40:36.663Z,9.10
2022-09-27T05:41:07.664Z,5.90
2022-09-27T05:41:41.471Z,7.30
2022-09-27T05:42:15.895Z,12.40
2022-09-27T05:42:50.663Z,12.70
2022-09-27T05:43:25.122Z,8.60
2022-09-27T05:43:58.642Z,6.80
2022-09-27T05:44:31.893Z,7.00
2022-09-27T05:45:07.522Z,11.60
2022-09-27T05:45:40.783Z,14.30
2022-09-27T05:46:14.859Z,7.70
2022-09-27T05:46:48.004Z,6.10
2022-09-27T05:47:21.234Z,8.20
2022-09-27T05:47:58.979Z,11.40
2022-09-27T05:48:32.476Z,16.30
2022-09-27T05:49:06.918Z,16.40
2022-09-27T05:49:40.775Z,13.00
2022-09-27T05:50:14.273Z,7.10
2022-09-27T05:50:47.589Z,9.20
2022-09-27T05:51:21.417Z,6.70
2022-09-27T05:51:54.740Z,6.90
2022-09-27T05:52:28.096Z,8.50
2022-09-27T05:53:01.370Z,9.50
2022-09-27T05:53:34.703Z,8.70
2022-09-27T05:54:07.993Z,15.50
2022-09-27T05:54:41.118Z,7.60
2022-09-27T05:55:14.410Z,7.50
2022-09-27T05:55:49.709Z,9.70
2022-09-27T05:56:22.964Z,10.80
2022-09-27T05:57:00.553Z,9.40
2022-09-27T05:57:35.187Z,13.40
2022-09-27T05:58:10.754Z,9.90
2022-09-27T05:58:44.041Z,11.20
2022-09-27T05:59:17.410Z,17.40
2022-09-27T05:59:50.805Z,7.30
2022-09-27T06:00:26.088Z,6.50
2022-09-27T06:00:59.133Z,9.00
2022-09-27T06:01:32.566Z,9.40
2022-09-27T06:02:05.815Z,12.40
2022-09-27T06:02:39.222Z,9.30
2022-09-27T06:03:13.769Z,8.80
2022-09-27T06:03:48.031Z,13.70
2022-09-27T06:04:21.948Z,14.20
2022-09-27T06:04:55.408Z,10.30
2022-09-27T06:05:31.201Z,7.60
2022-09-27T06:06:08.236Z,10.40
2022-09-27T06:06:41.438Z,6.10
2022-09-27T06:07:14.641Z,6.40
2022-09-27T06:07:49.835Z,8.80
2022-09-27T06:08:23.214Z,8.80
2022-09-27T06:08:56.560Z,10.50
2022-09-27T06:09:29.677Z,8.70
2022-09-27T06:10:02.989Z,11.50
2022-09-27T06:10:36.711Z,10.40
2022-09-27T06:11:14.562Z,7.50
2022-09-27T06:11:48.160Z,6.80
2022-09-27T06:12:21.540Z,7.20
2022-09-27T06:12:59.930Z,7.80
2022-09-27T06:13:34.010Z,4.80
2022-09-27T06:14:07.594Z,11.30
2022-09-27T06:14:40.910Z,8.30
2022-09-27T06:15:15.041Z,14.20
2022-09-27T06:15:51.212Z,11.10
2022-09-27T06:16:24.688Z,14.80
2022-09-27T06:16:58.401Z,10.70
2022-09-27T06:17:35.433Z,9.20
2022-09-27T06:18:11.754Z,8.90
2022-09-27T06:18:44.867Z,5.40
2022-09-27T06:19:18.002Z,5.30
2022-09-27T06:19:51.104Z,4.70
2022-09-27T06:20:24.184Z,5.20
2022-09-27T06:21:01.058Z,9.90
2022-09-27T06:21:34.512Z,6.60
2022-09-27T06:22:07.931Z,7.00
2022-09-27T06:22:41.783Z,6.90
2022-09-27T06:23:20.309Z,8.50
2022-09-27T06:23:55.747Z,5.70
2022-09-27T06:24:29.269Z,7.80
2022-09-27T06:25:04.258Z,10.10
2022-09-27T06:25:38.415Z,10.20
2022-09-27T06:26:11.890Z,9.00
2022-09-27T06:26:45.301Z,7.10
2022-09-27T06:27:19.287Z,10.90
2022-09-27T06:27:53.842Z,5.40
2022-09-27T06:28:27.537Z,6.30
2022-09-27T06:29:00.841Z,8.80
2022-09-27T06:29:35.566Z,12.50
2022-09-27T06:30:09.627Z,7.70
2022-09-27T06:30:48.884Z,5.10
2022-09-27T06:31:22.416Z,5.40
2022-09-27T06:31:57.379Z,6.50
2022-09-27T06:32:30.952Z,7.50
2022-09-27T06:33:04.763Z,6.80
2022-09-27T06:33:38.127Z,7.60
2022-09-27T06:34:11.243Z,10.90
2022-09-27T06:34:44.515Z,9.00
2022-09-27T06:35:17.661Z,8.10
2022-09-27T06:35:50.993Z,10.40
2022-09-27T06:36:24.111Z,8.60
2022-09-27T06:36:57.491Z,5.70
2022-09-27T06:37:30.708Z,5.70
2022-09-27T06:38:07.390Z,6.80
2022-09-27T06:38:40.439Z,6.10
2022-09-27T06:39:13.587Z,8.60
2022-09-27T06:39:49.406Z,5.40
2022-09-27T06:40:27.536Z,9.70
2022-09-27T06:41:07.242Z,6.50
2022-09-27T06:41:40.505Z,10.80
2022-09-27T06:42:13.581Z,7.20
2022-09-27T06:42:47.597Z,4.70
2022-09-27T06:43:21.747Z,7.50
2022-09-27T06:43:56.483Z,5.40
2022-09-27T06:44:29.858Z,6.20
2022-09-27T06:45:03.087Z,6.50
2022-09-27T06:45:37.722Z,6.90
2022-09-27T06:46:11.507Z,5.50
2022-09-27T06:46:44.935Z,7.00
2022-09-27T06:47:18.031Z,6.00
2022-09-27T06:47:51.168Z,9.50
2022-09-27T06:48:25.284Z,5.60
2022-09-27T06:48:58.630Z,7.80
2022-09-27T06:49:32.238Z,5.50
2022-09-27T06:50:06.885Z,8.80
2022-09-27T06:50:44.500Z,9.60
2022-09-27T06:51:17.734Z,11.60
2022-09-27T06:51:51.209Z,8.40
2022-09-27T06:52:24.389Z,8.90
2022-09-27T06:52:57.648Z,6.70
2022-09-27T06:53:30.812Z,7.40
2022-09-27T06:54:04.050Z,6.40
2022-09-27T06:54:37.282Z,6.40
2022-09-27T06:55:11.173Z,5.80
2022-09-27T06:55:44.614Z,6.50
2022-09-27T06:56:17.910Z,5.50
2022-09-27T06:56:51.153Z,5.50
2022-09-27T06:57:53.325Z,5.20
2022-09-27T06:58:45.255Z,9.30
2022-09-27T06:59:37.064Z,6.90
2022-09-27T07:00:24.150Z,5.80
2022-09-27T07:00:58.995Z,10.90
2022-09-27T07:01:32.376Z,8.40
2022-09-27T07:02:05.611Z,6.90
2022-09-27T07:02:40.437Z,14.60
2022-09-27T07:03:14.552Z,7.30
2022-09-27T07:03:51.368Z,7.50
2022-09-27T07:04:25.601Z,6.50
2022-09-27T07:04:59.301Z,8.10
2022-09-27T07:05:32.558Z,14.10
2022-09-27T07:06:08.051Z,8.40
2022-09-27T07:06:41.311Z,6.90
2022-09-27T07:07:14.743Z,6.60
2022-09-27T07:07:56.229Z,7.10
2022-09-27T07:08:30.093Z,6.40
2022-09-27T07:09:04.471Z,7.20
2022-09-27T07:09:40.572Z,6.80
2022-09-27T07:10:13.910Z,8.90
2022-09-27T07:10:47.170Z,6.30
2022-09-27T07:11:22.292Z,5.90
2022-09-27T07:11:55.894Z,6.20
2022-09-27T07:12:29.370Z,6.00
2022-09-27T07:13:10.512Z,7.00
2022-09-27T07:13:44.704Z,6.30
2022-09-27T07:14:17.916Z,7.20
2022-09-27T07:14:51.143Z,6.90
2022-09-27T07:15:24.264Z,6.80
2022-09-27T07:15:57.718Z,6.90
2022-09-27T07:16:31.929Z,6.70
2022-09-27T07:17:05.048Z,6.20
2022-09-27T07:17:38.267Z,7.00
2022-09-27T07:18:11.468Z,6.20
2022-09-27T07:18:44.625Z,6.20
2022-09-27T07:19:18.720Z,6.40
2022-09-27T07:19:52.160Z,7.50
2022-09-27T07:20:26.700Z,8.80
2022-09-27T07:21:01.965Z,8.00
2022-09-27T07:21:35.045Z,6.40
2022-09-27T07:22:08.132Z,6.90
2022-09-27T07:22:46.209Z,6.70
2022-09-27T07:23:19.711Z,6.30
2022-09-27T07:23:53.732Z,6.90
2022-09-27T07:24:26.871Z,6.90
2022-09-27T07:25:00.004Z,6.40
2022-09-27T07:25:34.170Z,5.70
2022-09-27T07:26:08.916Z,6.20
2022-09-27T07:26:41.954Z,6.20
2022-09-27T07:27:16.027Z,5.60
2022-09-27T07:27:49.904Z,6.10
2022-09-27T07:28:23.140Z,5.90
2022-09-27T07:28:57.170Z,5.40
2022-09-27T07:29:30.324Z,6.50
2022-09-27T07:30:05.039Z,6.30
2022-09-27T07:30:38.307Z,6.00
2022-09-27T07:31:12.197Z,5.90
2022-09-27T07:31:45.501Z,7.80
2022-09-27T07:32:18.619Z,7.70
2022-09-27T07:32:59.092Z,9.50
2022-09-27T07:33:33.036Z,7.70
2022-09-27T07:34:06.250Z,6.50
2022-09-27T07:34:39.589Z,6.60
2022-09-27T07:35:15.447Z,6.30
2022-09-27T07:35:48.617Z,6.50
2022-09-27T07:36:21.696Z,8.30
2022-09-27T07:36:59.924Z,7.90
2022-09-27T07:37:34.640Z,8.00
2022-09-27T07:38:10.864Z,10.50
2022-09-27T07:38:44.058Z,11.40
2022-09-27T07:39:17.354Z,11.30
2022-09-27T07:39:50.826Z,9.20
2022-09-27T07:40:24.234Z,11.00
2022-09-27T07:40:57.644Z,11.70
2022-09-27T07:41:32.285Z,11.00
2022-09-27T07:42:06.749Z,11.30
2022-09-27T07:42:41.959Z,12.10
2022-09-27T07:43:15.248Z,11.70
2022-09-27T07:43:48.437Z,11.10
2022-09-27T07:44:21.729Z,9.70
2022-09-27T07:44:58.346Z,9.10
2022-09-27T07:45:32.114Z,10.20
2022-09-27T07:46:05.369Z,11.70
2022-09-27T07:46:38.694Z,10.70
2022-09-27T07:47:11.834Z,9.30
2022-09-27T07:47:44.980Z,10.00
2022-09-27T07:48:18.810Z,9.10
2022-09-27T07:48:52.790Z,8.30
2022-09-27T07:49:25.865Z,9.80
2022-09-27T07:50:00.145Z,9.70
2022-09-27T07:50:33.833Z,9.60
2022-09-27T07:51:08.796Z,12.80
2022-09-27T07:51:41.981Z,14.90
2022-09-27T07:52:15.203Z,15.30
2022-09-27T07:52:53.144Z,17.50
2022-09-27T07:53:26.355Z,11.30
2022-09-27T07:54:05.266Z,11.20
2022-09-27T07:54:41.170Z,11.20
2022-09-27T07:55:15.481Z,12.90
2022-09-27T07:55:55.657Z,15.40
2022-09-27T07:56:29.494Z,16.60
2022-09-27T07:57:03.643Z,15.30
2022-09-27T07:57:38.155Z,14.80
2022-09-27T07:58:12.435Z,12.30
2022-09-27T07:58:45.609Z,10.30
2022-09-27T07:59:19.150Z,9.50
2022-09-27T07:59:52.270Z,8.30
2022-09-27T08:00:26.856Z,9.40
2022-09-27T08:01:02.475Z,7.60
2022-09-27T08:01:36.047Z,8.30
2022-09-27T08:02:18.666Z,7.20
2022-09-27T08:02:51.755Z,7.00
2022-09-27T08:03:25.121Z,7.20
2022-09-27T08:03:58.909Z,6.70
2022-09-27T08:04:32.146Z,6.80
2022-09-27T08:05:05.673Z,7.70
2022-09-27T08:05:39.234Z,6.70
2022-09-27T08:06:13.142Z,7.20
2022-09-27T08:06:46.259Z,8.90
2022-09-27T08:07:19.475Z,8.00
2022-09-27T08:07:59.230Z,8.30
2022-09-27T08:08:32.468Z,10.20
2022-09-27T08:09:07.705Z,14.90
2022-09-27T08:09:40.857Z,16.40
2022-09-27T08:10:14.067Z,14.10
2022-09-27T08:10:47.282Z,16.40
2022-09-27T08:11:22.102Z,15.20